createdAt,value
2022-11-08T00:01:35.558Z,100398.63
2022-11-08T00:04:23.199Z,100402.38
2022-11-08T00:07:29.126Z,100385.50
2022-11-08T00:10:35.324Z,100401.53
2022-11-08T00:13:39.700Z,100391.44
2022-11-08T00:16:26.820Z,100401.16
2022-11-08T00:19:14.467Z,100399.03
2022-11-08T00:22:02.137Z,100393.13
2022-11-08T00:24:51.626Z,100400.28
2022-11-08T00:27:40.285Z,100388.53
2022-11-08T00:30:27.869Z,100395.09
2022-11-08T00:33:15.056Z,100394.44
2022-11-08T00:36:03.332Z,100380.56
2022-11-08T00:38:50.986Z,100366.28
2022-11-08T00:41:39.197Z,100389.81
2022-11-08T00:44:28.100Z,100384.16
2022-11-08T00:47:15.527Z,100389.81
2022-11-08T00:50:03.298Z,100386.88
2022-11-08T00:52:50.495Z,100388.53
2022-11-08T00:55:37.871Z,100397.41
2022-11-08T00:58:27.694Z,100381.41
2022-11-08T01:01:18.910Z,100383.09
2022-11-08T01:04:06.503Z,100380.75
2022-11-08T01:06:53.525Z,100350.47
2022-11-08T01:09:40.804Z,100363.94
2022-11-08T01:12:27.824Z,100378.69
2022-11-08T01:15:15.639Z,100372.56
2022-11-08T01:18:04.614Z,100363.31
2022-11-08T01:20:52.484Z,100375.94
2022-11-08T01:23:40.007Z,100374.44
2022-11-08T01:26:29.466Z,100377.22
2022-11-08T01:29:16.853Z,100372.59
2022-11-08T01:32:03.686Z,100362.72
2022-11-08T01:34:52.558Z,100378.06
2022-11-08T01:37:39.710Z,100370.66
2022-11-08T01:40:27.361Z,100361.00
2022-11-08T01:43:35.770Z,100369.00
2022-11-08T01:46:39.183Z,100361.66
2022-11-08T01:49:43.946Z,100361.22
2022-11-08T01:52:36.486Z,100364.56
2022-11-08T01:55:27.282Z,100353.44
2022-11-08T01:58:18.413Z,100362.25
2022-11-08T02:01:06.388Z,100362.25
2022-11-08T02:03:54.143Z,100355.75
2022-11-08T02:06:43.131Z,100353.03
2022-11-08T02:09:32.815Z,100349.44
2022-11-08T02:12:23.588Z,100338.06
2022-11-08T02:15:12.099Z,100352.81
2022-11-08T02:17:59.775Z,100348.16
2022-11-08T02:20:55.084Z,100343.34
2022-11-08T02:23:47.463Z,100355.34
2022-11-08T02:26:36.381Z,100344.81
2022-11-08T02:29:29.472Z,100360.59
2022-11-08T02:32:16.712Z,100344.38
2022-11-08T02:35:04.113Z,100349.00
2022-11-08T02:37:51.923Z,100352.78
2022-11-08T02:40:51.785Z,100347.94
2022-11-08T02:43:39.277Z,100347.50
2022-11-08T02:46:26.997Z,100348.53
2022-11-08T02:49:14.409Z,100349.00
2022-11-08T02:52:02.235Z,100338.91
2022-11-08T02:54:49.565Z,100339.78
2022-11-08T02:57:38.428Z,100336.81
2022-11-08T03:00:26.024Z,100329.69
2022-11-08T03:03:13.985Z,100317.44
2022-11-08T03:06:01.645Z,100327.13
2022-11-08T03:08:49.385Z,100331.34
2022-11-08T03:11:36.887Z,100328.19
2022-11-08T03:14:25.836Z,100314.53
2022-11-08T03:17:13.067Z,100328.00
2022-11-08T03:20:00.712Z,100330.09
2022-11-08T03:22:48.283Z,100330.50
2022-11-08T03:25:36.209Z,100314.06
2022-11-08T03:28:23.661Z,100313.47
2022-11-08T03:31:12.847Z,100316.81
2022-11-08T03:34:00.487Z,100316.63
2022-11-08T03:36:47.949Z,100313.03
2022-11-08T03:39:35.027Z,100309.00
2022-11-08T03:42:22.395Z,100312.81
2022-11-08T03:45:11.367Z,100306.53
2022-11-08T03:48:00.236Z,100312.41
2022-11-08T03:50:47.764Z,100309.88
2022-11-08T03:53:35.201Z,100307.16
2022-11-08T03:56:23.138Z,100303.53
2022-11-08T03:59:12.516Z,100300.59
2022-11-08T04:01:59.411Z,100303.94
2022-11-08T04:04:48.407Z,100299.31
2022-11-08T04:07:36.121Z,100288.75
2022-11-08T04:10:23.632Z,100281.56
2022-11-08T04:13:28.802Z,100292.13
2022-11-08T04:16:17.969Z,100269.25
2022-11-08T04:19:23.203Z,100265.66
2022-11-08T04:22:13.166Z,100276.81
2022-11-08T04:25:00.275Z,100275.34
2022-11-08T04:27:47.655Z,100259.56
2022-11-08T04:30:35.693Z,100260.84
2022-11-08T04:33:23.039Z,100260.03
2022-11-08T04:36:16.377Z,100246.78
2022-11-08T04:39:05.818Z,100230.38
2022-11-08T04:41:56.444Z,100256.47
2022-11-08T04:44:46.525Z,100253.75
2022-11-08T04:47:39.392Z,100239.66
2022-11-08T04:50:28.445Z,100234.59
2022-11-08T04:53:15.671Z,100228.13
2022-11-08T04:56:06.982Z,100230.44
2022-11-08T04:58:55.598Z,100231.03
2022-11-08T05:01:42.612Z,100230.41
2022-11-08T05:04:30.307Z,100222.44
2022-11-08T05:07:17.259Z,100228.50
2022-11-08T05:10:05.785Z,100233.94
2022-11-08T05:12:58.776Z,100238.81
2022-11-08T05:15:46.370Z,100236.69
2022-11-08T05:18:35.062Z,100239.66
2022-11-08T05:21:41.400Z,100237.53
2022-11-08T05:24:28.853Z,100252.03
2022-11-08T05:27:16.335Z,100243.19
2022-11-08T05:30:06.469Z,100241.72
2022-11-08T05:32:53.957Z,100237.31
2022-11-08T05:35:41.608Z,100227.63
2022-11-08T05:38:28.855Z,100218.09
2022-11-08T05:41:17.571Z,100223.16
2022-11-08T05:44:04.743Z,100219.81
2022-11-08T05:46:53.510Z,100209.75
2022-11-08T05:49:41.060Z,100215.78
2022-11-08T05:52:28.817Z,100211.59
2022-11-08T05:55:16.574Z,100210.31
2022-11-08T05:58:03.589Z,100208.03
2022-11-08T06:00:50.839Z,100200.81
2022-11-08T06:03:40.754Z,100190.50
2022-11-08T06:06:28.581Z,100202.47
2022-11-08T06:09:16.079Z,100208.78
2022-11-08T06:12:03.331Z,100210.88
2022-11-08T06:14:50.921Z,100210.84
2022-11-08T06:17:39.478Z,100202.63
2022-11-08T06:20:28.362Z,100202.16
2022-11-08T06:23:16.336Z,100197.59
2022-11-08T06:26:04.195Z,100200.47
2022-11-08T06:28:51.743Z,100190.19
2022-11-08T06:31:42.867Z,100201.53
2022-11-08T06:34:30.707Z,100206.28
2022-11-08T06:37:19.505Z,100201.06
2022-11-08T06:40:08.230Z,100188.19
2022-11-08T06:42:56.217Z,100194.31
2022-11-08T06:45:45.177Z,100188.78
2022-11-08T06:48:36.071Z,100199.66
2022-11-08T06:51:23.778Z,100194.81
2022-11-08T06:54:17.546Z,100200.31
2022-11-08T06:57:05.361Z,100192.31
2022-11-08T06:59:53.298Z,100198.38
2022-11-08T07:02:40.347Z,100201.00
2022-11-08T07:05:28.983Z,100192.41
2022-11-08T07:08:22.362Z,100177.47
2022-11-08T07:11:12.571Z,100174.97
2022-11-08T07:14:00.127Z,100169.13
2022-11-08T07:16:47.329Z,100152.84
2022-11-08T07:19:34.785Z,100158.25
2022-11-08T07:22:22.309Z,100150.97
2022-11-08T07:25:10.044Z,100135.03
2022-11-08T07:27:59.692Z,100136.69
2022-11-08T07:30:49.289Z,100121.75
2022-11-08T07:33:37.167Z,100130.59
2022-11-08T07:36:24.856Z,100115.84
2022-11-08T07:39:12.116Z,100125.13
2022-11-08T07:42:00.029Z,100133.88
2022-11-08T07:44:51.739Z,100118.69
2022-11-08T07:47:39.891Z,100112.88
2022-11-08T07:50:27.934Z,100098.44
2022-11-08T07:53:15.452Z,100107.50
2022-11-08T07:56:03.071Z,100099.94
2022-11-08T07:58:50.285Z,100096.91
2022-11-08T08:01:39.132Z,100100.06
2022-11-08T08:04:26.338Z,100089.88
2022-11-08T08:07:13.638Z,100094.72
2022-11-08T08:10:01.067Z,100093.34
2022-11-08T08:12:47.956Z,100083.63
2022-11-08T08:15:35.909Z,100086.72
2022-11-08T08:18:24.629Z,100084.63
2022-11-08T08:21:12.158Z,100080.56
2022-11-08T08:23:59.405Z,100073.09
2022-11-08T08:26:46.417Z,100070.44
2022-11-08T08:29:33.842Z,100066.88
2022-11-08T08:32:21.219Z,100075.53
2022-11-08T08:35:10.840Z,100062.41
2022-11-08T08:38:00.049Z,100069.88
2022-11-08T08:40:47.589Z,100057.97
2022-11-08T08:43:35.279Z,100066.50
2022-11-08T08:46:22.595Z,100069.88
2022-11-08T08:49:10.015Z,100070.41
2022-11-08T08:51:59.249Z,100076.84
2022-11-08T08:54:47.153Z,100061.22
2022-11-08T08:57:35.119Z,100069.22
2022-11-08T09:03:30.644Z,100067.19
2022-11-08T09:06:18.264Z,100059.22
2022-11-08T09:09:07.782Z,100068.06
2022-11-08T09:11:55.519Z,100067.84
2022-11-08T09:14:42.816Z,100064.59
2022-11-08T09:17:30.613Z,100069.50
2022-11-08T09:20:17.775Z,100074.06
2022-11-08T09:23:05.310Z,100043.63
2022-11-08T09:25:59.328Z,100061.44
2022-11-08T09:28:47.266Z,100067.06
2022-11-08T09:31:34.708Z,100061.78
2022-11-08T09:34:22.297Z,100049.09
2022-11-08T09:37:09.866Z,100054.38
2022-11-08T09:39:57.401Z,100045.03
2022-11-08T09:43:03.069Z,100033.16
2022-11-08T09:45:52.977Z,100037.19
2022-11-08T09:48:43.197Z,100037.81
2022-11-08T09:51:33.142Z,100032.28
2022-11-08T09:54:24.701Z,100037.25
2022-11-08T09:57:22.546Z,100028.38
2022-11-08T10:00:14.800Z,100023.25
2022-11-08T10:03:03.454Z,100030.66
2022-11-08T10:06:03.632Z,100012.91
2022-11-08T10:09:01.258Z,100013.47
2022-11-08T10:12:02.385Z,100015.66
2022-11-08T10:15:07.739Z,100019.53
2022-11-08T10:18:25.569Z,100002.13
2022-11-08T10:21:27.392Z,99989.75
2022-11-08T10:24:20.579Z,100009.81
2022-11-08T10:27:17.038Z,100008.88
2022-11-08T10:30:08.507Z,100012.78
2022-11-08T10:32:58.059Z,100013.03
2022-11-08T10:35:49.957Z,100011.31
2022-11-08T10:38:42.712Z,100020.88
2022-11-08T10:41:39.456Z,100016.47
2022-11-08T10:44:28.517Z,100011.91
2022-11-08T10:47:22.901Z,100020.16
2022-11-08T10:50:15.911Z,100016.06
2022-11-08T10:53:05.434Z,100019.69
2022-11-08T10:55:54.327Z,100010.53
2022-11-08T10:58:43.946Z,100019.84
2022-11-08T11:01:31.486Z,100016.81
2022-11-08T11:04:27.942Z,100003.03
2022-11-08T11:07:32.113Z,100001.28
2022-11-08T11:10:28.158Z,100005.28
2022-11-08T11:13:20.235Z,100006.03
2022-11-08T11:16:15.379Z,99992.75
2022-11-08T11:19:05.576Z,99982.84
2022-11-08T11:21:57.771Z,99983.78
2022-11-08T11:24:50.285Z,99981.69
2022-11-08T11:27:39.449Z,99979.78
2022-11-08T11:30:31.035Z,99976.63
2022-11-08T11:33:25.249Z,99981.75
2022-11-08T11:36:16.688Z,99967.03
2022-11-08T11:39:13.339Z,99966.41
2022-11-08T11:42:24.067Z,99941.78
2022-11-08T11:45:19.342Z,99959.28
2022-11-08T11:48:16.511Z,99944.69
2022-11-08T11:51:04.486Z,99951.19
2022-11-08T11:53:51.805Z,99947.44
2022-11-08T11:56:49.325Z,99933.16
2022-11-08T11:59:53.445Z,99934.16
2022-11-08T12:03:15.477Z,99932.50
2022-11-08T12:06:28.523Z,99921.16
2022-11-08T12:09:35.367Z,99932.91
2022-11-08T12:12:35.357Z,99935.44
2022-11-08T12:15:31.916Z,99920.88
2022-11-08T12:18:47.563Z,99923.66
2022-11-08T12:21:45.856Z,99919.25
2022-11-08T12:24:43.170Z,99916.31
2022-11-08T12:27:42.235Z,99889.00
2022-11-08T12:30:39.418Z,99916.66
2022-11-08T12:33:37.328Z,99905.53
2022-11-08T12:36:30.154Z,99917.38
2022-11-08T12:39:32.131Z,99916.38
2022-11-08T12:42:41.996Z,99920.47
2022-11-08T12:45:45.236Z,99915.72
2022-11-08T12:48:50.615Z,99926.75
2022-11-08T12:51:52.413Z,99923.41
2022-11-08T12:54:43.145Z,99920.25
2022-11-08T12:57:31.366Z,99907.97
2022-11-08T13:00:20.354Z,99923.16
2022-11-08T13:03:24.228Z,99921.59
2022-11-08T13:06:20.153Z,99916.91
2022-11-08T13:09:16.245Z,99908.25
2022-11-08T13:12:18.039Z,99914.00
2022-11-08T13:15:06.618Z,99890.94
2022-11-08T13:18:33.940Z,99916.63
2022-11-08T13:21:48.396Z,99912.72
2022-11-08T13:24:45.382Z,99910.53
2022-11-08T13:27:36.506Z,99895.59
2022-11-08T13:30:40.001Z,99913.97
2022-11-08T13:33:32.206Z,99908.91
2022-11-08T13:36:31.362Z,99900.38
2022-11-08T13:39:31.744Z,99912.97
2022-11-08T13:42:41.369Z,99889.09
2022-11-08T13:45:34.845Z,99893.34
2022-11-08T13:48:37.397Z,99907.28
2022-11-08T13:51:30.160Z,99920.38
2022-11-08T13:54:48.784Z,99923.16
2022-11-08T13:58:02.095Z,99931.81
2022-11-08T14:00:49.587Z,99923.81
2022-11-08T14:03:57.091Z,99918.13
2022-11-08T14:06:56.023Z,99922.13
2022-11-08T14:09:50.353Z,99916.59
2022-11-08T14:12:46.377Z,99909.69
2022-11-08T14:15:44.480Z,99925.53
2022-11-08T14:18:34.041Z,99912.38
2022-11-08T14:21:21.755Z,99908.34
2022-11-08T14:24:17.442Z,99909.13
2022-11-08T14:27:05.466Z,99910.00
2022-11-08T14:30:01.138Z,99925.06
2022-11-08T14:33:05.797Z,99935.59
2022-11-08T14:35:55.953Z,99937.28
2022-11-08T14:38:48.826Z,99931.34
2022-11-08T14:41:37.161Z,99924.69
2022-11-08T14:44:25.624Z,99932.34
2022-11-08T14:47:24.208Z,99925.56
2022-11-08T14:50:21.415Z,99927.59
2022-11-08T14:53:27.426Z,99935.09
2022-11-08T14:56:18.620Z,99925.56
2022-11-08T14:59:08.518Z,99923.41
2022-11-08T15:01:56.360Z,99899.00
2022-11-08T15:04:43.948Z,99919.47
2022-11-08T15:07:34.928Z,99884.34
2022-11-08T15:10:22.538Z,99914.72
2022-11-08T15:13:12.072Z,99910.97
2022-11-08T15:16:04.189Z,99922.47
2022-11-08T15:18:51.851Z,99913.66
2022-11-08T15:21:49.430Z,99887.28
2022-11-08T15:24:40.254Z,99913.38
2022-11-08T15:27:28.143Z,99889.13
2022-11-08T15:30:18.152Z,99886.50
2022-11-08T15:33:06.530Z,99881.00
2022-11-08T15:35:54.629Z,99891.31
2022-11-08T15:38:44.612Z,99868.81
2022-11-08T15:41:38.598Z,99868.81
2022-11-08T15:44:27.476Z,99867.72
2022-11-08T15:47:37.041Z,99877.16
2022-11-08T15:50:27.060Z,99863.81
2022-11-08T15:53:14.818Z,99874.34
2022-11-08T15:56:04.806Z,99887.28
2022-11-08T15:58:54.344Z,99877.38
2022-11-08T16:01:53.895Z,99869.94
2022-11-08T16:04:41.559Z,99873.88
2022-11-08T16:07:29.053Z,99866.38
2022-11-08T16:10:18.861Z,99869.94
2022-11-08T16:13:07.306Z,99874.31
2022-11-08T16:15:55.736Z,99881.09
2022-11-08T16:18:43.901Z,99871.81
2022-11-08T16:21:32.249Z,99858.56
2022-11-08T16:24:20.188Z,99871.59
2022-11-08T16:27:08.474Z,99880.41
2022-11-08T16:29:55.998Z,99872.56
2022-11-08T16:32:44.768Z,99858.91
2022-11-08T16:35:32.279Z,99871.59
2022-11-08T16:38:27.405Z,99869.22
2022-11-08T16:41:14.656Z,99872.66
2022-11-08T16:44:02.371Z,99880.06
2022-11-08T16:46:49.730Z,99872.31
2022-11-08T16:49:38.588Z,99873.31
2022-11-08T16:52:25.914Z,99877.47
2022-11-08T16:55:17.768Z,99878.06
2022-11-08T16:58:05.687Z,99871.41
2022-11-08T17:00:53.333Z,99878.31
2022-11-08T17:03:40.309Z,99858.38
2022-11-08T17:06:29.739Z,99869.13
2022-11-08T17:09:16.969Z,99871.78
2022-11-08T17:12:04.664Z,99873.56
2022-11-08T17:14:51.948Z,99868.78
2022-11-08T17:17:39.624Z,99874.25
2022-11-08T17:20:27.989Z,99885.84
2022-11-08T17:23:17.928Z,99883.09
2022-11-08T17:26:06.414Z,99885.38
2022-11-08T17:28:56.402Z,99888.59
2022-11-08T17:31:43.636Z,99882.25
2022-11-08T17:34:31.436Z,99881.84
2022-11-08T17:37:18.757Z,99873.50
2022-11-08T17:40:09.206Z,99884.16
2022-11-08T17:42:56.502Z,99892.00
2022-11-08T17:45:43.975Z,99893.81
2022-11-08T17:48:32.052Z,99893.25
2022-11-08T17:51:19.556Z,99892.63
2022-11-08T17:54:08.177Z,99892.94
2022-11-08T17:56:57.663Z,99900.03
2022-11-08T17:59:45.363Z,99906.25
2022-11-08T18:02:34.670Z,99898.63
2022-11-08T18:05:22.418Z,99894.31
2022-11-08T18:08:09.938Z,99884.28
2022-11-08T18:10:57.978Z,99887.34
2022-11-08T18:13:46.412Z,99887.59
2022-11-08T18:16:34.423Z,99895.56
2022-11-08T18:19:22.056Z,99905.63
2022-11-08T18:22:09.304Z,99876.88
2022-11-08T18:24:56.692Z,99898.38
2022-11-08T18:27:44.501Z,99905.41
2022-11-08T18:30:34.495Z,99891.69
2022-11-08T18:33:22.424Z,99909.38
2022-11-08T18:36:13.026Z,99908.19
2022-11-08T18:39:01.620Z,99895.03
2022-11-08T18:41:49.169Z,99899.81
2022-11-08T18:44:37.003Z,99892.53
2022-11-08T18:47:28.033Z,99892.53
2022-11-08T18:50:15.817Z,99897.28
2022-11-08T18:53:06.986Z,99909.81
2022-11-08T18:55:54.371Z,99887.75
2022-11-08T18:58:44.736Z,99885.81
2022-11-08T19:01:35.505Z,99892.84
2022-11-08T19:04:24.655Z,99885.09
2022-11-08T19:07:12.222Z,99882.34
2022-11-08T19:10:00.215Z,99872.31
2022-11-08T19:12:48.109Z,99876.00
2022-11-08T19:15:36.161Z,99872.31
2022-11-08T19:18:23.972Z,99865.66
2022-11-08T19:21:15.625Z,99879.28
2022-11-08T19:24:08.622Z,99888.22
2022-11-08T19:26:56.036Z,99883.56
2022-11-08T19:29:43.280Z,99880.84
2022-11-08T19:32:31.002Z,99885.72
2022-11-08T19:35:20.206Z,99879.09
2022-11-08T19:38:09.205Z,99872.59
2022-11-08T19:40:57.282Z,99883.59
2022-11-08T19:43:46.421Z,99864.94
2022-11-08T19:46:34.879Z,99880.84
2022-11-08T19:49:25.730Z,99891.81
2022-11-08T19:52:14.203Z,99886.50
2022-11-08T19:55:03.250Z,99890.78
2022-11-08T19:57:51.710Z,99889.59
2022-11-08T20:00:40.071Z,99892.44
2022-11-08T20:03:27.957Z,99893.72
2022-11-08T20:06:17.241Z,99882.28
2022-11-08T20:09:06.884Z,99884.09
2022-11-08T20:11:56.680Z,99889.00
2022-11-08T20:14:44.839Z,99886.38
2022-11-08T20:17:34.672Z,99888.41
2022-11-08T20:20:22.401Z,99891.59
2022-11-08T20:23:09.921Z,99901.75
2022-11-08T20:26:00.838Z,99907.75
2022-11-08T20:28:56.324Z,99899.41
2022-11-08T20:31:45.861Z,99905.09
2022-11-08T20:34:33.893Z,99902.44
2022-11-08T20:37:21.493Z,99909.63
2022-11-08T20:40:10.201Z,99911.03
2022-11-08T20:42:57.498Z,99905.06
2022-11-08T20:45:47.727Z,99913.69
2022-11-08T20:48:35.255Z,99918.81
2022-11-08T20:51:22.997Z,99904.84
2022-11-08T20:54:11.530Z,99912.13
2022-11-08T20:56:58.549Z,99920.94
2022-11-08T20:59:45.844Z,99916.22
2022-11-08T21:02:34.538Z,99921.59
2022-11-08T21:05:21.922Z,99920.84
2022-11-08T21:08:57.883Z,99921.06
2022-11-08T21:11:16.945Z,99918.94
2022-11-08T21:14:04.990Z,99929.06
2022-11-08T21:17:20.846Z,99922.66
2022-11-08T21:20:01.928Z,99918.09
2022-11-08T21:22:48.960Z,99911.41
2022-11-08T21:25:36.769Z,99913.28
2022-11-08T21:28:25.069Z,99921.50
2022-11-08T21:31:12.808Z,99916.94
2022-11-08T21:34:00.085Z,99918.19
2022-11-08T21:36:48.838Z,99923.16
2022-11-08T21:39:36.476Z,99925.97
2022-11-08T21:42:23.738Z,99926.00
2022-11-08T21:45:11.498Z,99931.88
2022-11-08T21:47:59.106Z,99924.56
2022-11-08T21:50:46.374Z,99939.66
2022-11-08T21:53:36.784Z,99936.06
2022-11-08T21:56:29.496Z,99942.19
2022-11-08T21:59:17.260Z,99940.91
2022-11-08T22:02:04.585Z,99951.88
2022-11-08T22:04:52.387Z,99948.50
2022-11-08T22:07:39.924Z,99940.31
2022-11-08T22:10:28.239Z,99942.00
2022-11-08T22:13:15.367Z,99945.59
2022-11-08T22:16:02.732Z,99950.50
2022-11-08T22:19:06.255Z,99953.38
2022-11-08T22:21:53.702Z,99951.88
2022-11-08T22:24:40.987Z,99950.03
2022-11-08T22:27:29.659Z,99941.19
2022-11-08T22:30:17.283Z,99941.13
2022-11-08T22:33:04.748Z,99932.84
2022-11-08T22:35:51.824Z,99926.19
2022-11-08T22:38:39.755Z,99926.00
2022-11-08T22:41:27.140Z,99931.13
2022-11-08T22:44:16.570Z,99926.28
2022-11-08T22:47:04.158Z,99924.13
2022-11-08T22:49:51.599Z,99923.28
2022-11-08T22:52:39.251Z,99923.97
2022-11-08T22:55:26.668Z,99917.72
2022-11-08T22:58:14.313Z,99927.31
2022-11-08T23:01:03.176Z,99930.19
2022-11-08T23:03:50.718Z,99928.03
2022-11-08T23:06:38.235Z,99923.88
2022-11-08T23:09:25.631Z,99916.59
2022-11-08T23:12:31.019Z,99917.22
2022-11-08T23:15:50.667Z,99917.13
2022-11-08T23:18:39.416Z,99916.44
2022-11-08T23:21:43.870Z,99921.63
2022-11-08T23:24:31.781Z,99919.50
2022-11-08T23:27:38.018Z,99923.69
2022-11-08T23:30:43.075Z,99916.91
2022-11-08T23:33:30.307Z,99916.50
2022-11-08T23:36:20.636Z,99916.28
2022-11-08T23:39:08.700Z,99909.72
2022-11-08T23:42:13.776Z,99918.09
2022-11-08T23:45:00.986Z,99926.91
2022-11-08T23:47:48.458Z,99921.06
2022-11-08T23:50:35.409Z,99915.94
2022-11-08T23:53:26.028Z,99922.66
2022-11-08T23:56:21.595Z,99922.97
2022-11-08T23:59:09.733Z,99927.41
